PWSweather.com
Personal Weather Stations
Station Observations
ABCSTATION
Croke Park City Centre Dublin, DublinIE Dublin

Croke Park City Centre DublinDublinIE Dublin

Lat: 53.3585133, Lon: -6.2522999000000254

Elevation: 30

Station Type: Weather Station Wireless Professional WS2083

http://www.abcweatherstation.com

Latest ConditionsUpdated 4:55:00 AM GMT Thursday, Apr 25, 2019
Currently Today's Max Today's Min Today's Average
Temperature 49.3°F9.6°C 51.1°F10.6°C 48.7°F9.3°C 49.9°F9.9°C
Dew Point 47.1°F8.4°C 47.3°F8.5°C 45.9°F7.7°C 46.6°F8.1°C
Winds 1.6 mph SE2.6 kmh SE 3.1 mph -5.0 kmh - - 0.8 mph 1.3 kmh
Wind Gusts 2.2 mph3.5 kmh 6.9 mph11.1 kmh - -
Humidity 92% 92% 83% 88%
Pressure 29.07 in984.4 mb 29.08 in984.8 mb 29.06 in984.1 mb -
Hour Temp Dew Point Humidity Winds Wind Gusts Pressure Precip Precip Rate Daily Precip Total
04:55 AM 49.3°F9.6°C 47.1°F8.4°C 92% 1.6 mph SE2.6 kmh SE 2.2 mph3.5 kmh 29.07 in984.4 mb 0.00 in0.0 mm 0.00 in0.0 mm 0.00 in0.0 mm
04:50 AM 49.1°F9.5°C 46.9°F8.3°C 92% Calm Calm 3.1 mph5.0 kmh 29.07 in984.4 mb 0.00 in0.0 mm 0.00 in0.0 mm 0.00 in0.0 mm
04:45 AM 49.1°F9.5°C 46.9°F8.3°C 92% Calm Calm 3.1 mph5.0 kmh 29.07 in984.4 mb 0.00 in0.0 mm 0.00 in0.0 mm 0.00 in0.0 mm
04:40 AM 48.9°F9.4°C 46.7°F8.2°C 92% Calm Calm 2.2 mph3.5 kmh 29.07 in984.4 mb 0.00 in0.0 mm 0.00 in0.0 mm 0.00 in0.0 mm
04:35 AM 48.9°F9.4°C 46.7°F8.2°C 92% Calm Calm 2.2 mph3.5 kmh 29.08 in984.8 mb 0.00 in0.0 mm 0.00 in0.0 mm 0.00 in0.0 mm
04:30 AM 48.7°F9.3°C 46.5°F8.1°C 92% Calm Calm 1.6 mph2.6 kmh 29.07 in984.4 mb 0.00 in0.0 mm 0.00 in0.0 mm 0.00 in0.0 mm
04:25 AM 48.7°F9.3°C 46.5°F8.1°C 92% Calm Calm 1.6 mph2.6 kmh 29.07 in984.4 mb 0.00 in0.0 mm 0.00 in0.0 mm 0.00 in0.0 mm
04:20 AM 48.7°F9.3°C 46.5°F8.1°C 92% Calm Calm 1.6 mph2.6 kmh 29.07 in984.4 mb 0.00 in0.0 mm 0.00 in0.0 mm 0.00 in0.0 mm
04:15 AM 48.7°F9.3°C 46.5°F8.1°C 92% Calm Calm 2.2 mph3.5 kmh 29.07 in984.4 mb 0.00 in0.0 mm 0.00 in0.0 mm 0.00 in0.0 mm
04:10 AM 48.7°F9.3°C 46.5°F8.1°C 92% Calm Calm 2.2 mph3.5 kmh 29.07 in984.4 mb 0.00 in0.0 mm 0.00 in0.0 mm 0.00 in0.0 mm
04:05 AM 48.9°F9.4°C 46.7°F8.2°C 92% Calm Calm 3.1 mph5.0 kmh 29.07 in984.4 mb 0.00 in0.0 mm 0.00 in0.0 mm 0.00 in0.0 mm
04:00 AM 48.9°F9.4°C 46.7°F8.2°C 92% 1.6 mph SSE2.6 kmh SSE 3.1 mph5.0 kmh 29.07 in984.4 mb 0.00 in0.0 mm 0.00 in0.0 mm 0.00 in0.0 mm
03:55 AM 48.9°F9.4°C 46.7°F8.2°C 92% Calm Calm 3.1 mph5.0 kmh 29.08 in984.8 mb 0.00 in0.0 mm 0.00 in0.0 mm 0.00 in0.0 mm
03:50 AM 49.1°F9.5°C 46.9°F8.3°C 92% 0.7 mph SSE1.1 kmh SSE 3.1 mph5.0 kmh 29.08 in984.8 mb 0.00 in0.0 mm 0.00 in0.0 mm 0.00 in0.0 mm
03:45 AM 49.1°F9.5°C 46.9°F8.3°C 92% 0.7 mph SSE1.1 kmh SSE 3.8 mph6.1 kmh 29.08 in984.8 mb 0.00 in0.0 mm 0.00 in0.0 mm 0.00 in0.0 mm
03:40 AM 49.1°F9.5°C 46.9°F8.3°C 92% 0.7 mph SSE1.1 kmh SSE 3.8 mph6.1 kmh 29.07 in984.4 mb 0.00 in0.0 mm 0.00 in0.0 mm 0.00 in0.0 mm
03:35 AM 49.1°F9.5°C 46.9°F8.3°C 92% 0.7 mph SE1.1 kmh SE 3.8 mph6.1 kmh 29.08 in984.8 mb 0.00 in0.0 mm 0.00 in0.0 mm 0.00 in0.0 mm
03:30 AM 49.1°F9.5°C 46.6°F8.1°C 91% 0.7 mph SE1.1 kmh SE 4.5 mph7.2 kmh 29.07 in984.4 mb 0.00 in0.0 mm 0.00 in0.0 mm 0.00 in0.0 mm
03:25 AM 49.3°F9.6°C 46.8°F8.2°C 91% 2.2 mph SE3.5 kmh SE 4.5 mph7.2 kmh 29.07 in984.4 mb 0.00 in0.0 mm 0.00 in0.0 mm 0.00 in0.0 mm
03:20 AM 49.3°F9.6°C 46.8°F8.2°C 91% 1.6 mph SSE2.6 kmh SSE 4.5 mph7.2 kmh 29.07 in984.4 mb 0.00 in0.0 mm 0.00 in0.0 mm 0.00 in0.0 mm
03:15 AM 49.3°F9.6°C 46.8°F8.2°C 91% 0.7 mph SE1.1 kmh SE 3.8 mph6.1 kmh 29.07 in984.4 mb 0.00 in0.0 mm 0.00 in0.0 mm 0.00 in0.0 mm
03:10 AM 49.5°F9.7°C 46.9°F8.3°C 91% 1.6 mph SE2.6 kmh SE 3.1 mph5.0 kmh 29.07 in984.4 mb 0.00 in0.0 mm 0.00 in0.0 mm 0.00 in0.0 mm
03:05 AM 49.5°F9.7°C 46.9°F8.3°C 91% Calm Calm 4.5 mph7.2 kmh 29.07 in984.4 mb 0.00 in0.0 mm 0.00 in0.0 mm 0.00 in0.0 mm
03:00 AM 49.6°F9.8°C 47.1°F8.4°C 91% 1.6 mph SSE2.6 kmh SSE 4.5 mph7.2 kmh 29.07 in984.4 mb 0.00 in0.0 mm 0.00 in0.0 mm 0.00 in0.0 mm
02:55 AM 49.8°F9.9°C 47.3°F8.5°C 91% Calm Calm 3.8 mph6.1 kmh 29.07 in984.4 mb 0.00 in0.0 mm 0.00 in0.0 mm 0.00 in0.0 mm
02:50 AM 49.8°F9.9°C 47.3°F8.5°C 91% Calm Calm 3.8 mph6.1 kmh 29.07 in984.4 mb 0.00 in0.0 mm 0.00 in0.0 mm 0.00 in0.0 mm
02:45 AM 50.0°F10.0°C 46.9°F8.3°C 89% 2.2 mph SE3.5 kmh SE 3.8 mph6.1 kmh 29.07 in984.4 mb 0.00 in0.0 mm 0.00 in0.0 mm 0.00 in0.0 mm
02:40 AM 50.0°F10.0°C 46.9°F8.3°C 89% 0.7 mph SE1.1 kmh SE 3.1 mph5.0 kmh 29.07 in984.4 mb 0.00 in0.0 mm 0.00 in0.0 mm 0.00 in0.0 mm
02:35 AM 50.0°F10.0°C 46.6°F8.1°C 88% 1.6 mph SSE2.6 kmh SSE 4.5 mph7.2 kmh 29.07 in984.4 mb 0.00 in0.0 mm 0.00 in0.0 mm 0.00 in0.0 mm
02:30 AM 50.2°F10.1°C 46.8°F8.2°C 88% 0.7 mph SSW1.1 kmh SSW 4.5 mph7.2 kmh 29.07 in984.4 mb 0.00 in0.0 mm 0.00 in0.0 mm 0.00 in0.0 mm
02:25 AM 50.4°F10.2°C 46.9°F8.3°C 88% 3.1 mph WSW5.0 kmh WSW 5.4 mph8.7 kmh 29.07 in984.4 mb 0.00 in0.0 mm 0.00 in0.0 mm 0.00 in0.0 mm
02:20 AM 50.4°F10.2°C 46.9°F8.3°C 88% 1.6 mph WSW2.6 kmh WSW 5.4 mph8.7 kmh 29.07 in984.4 mb 0.00 in0.0 mm 0.00 in0.0 mm 0.00 in0.0 mm
02:15 AM 50.5°F10.3°C 47.1°F8.4°C 88% 0.7 mph WSW1.1 kmh WSW 4.5 mph7.2 kmh 29.07 in984.4 mb 0.00 in0.0 mm 0.00 in0.0 mm 0.00 in0.0 mm
02:10 AM 50.5°F10.3°C 46.8°F8.2°C 87% 0.7 mph WSW1.1 kmh WSW 5.4 mph8.7 kmh 29.07 in984.4 mb 0.00 in0.0 mm 0.00 in0.0 mm 0.00 in0.0 mm
02:05 AM 50.5°F10.3°C 46.8°F8.2°C 87% 0.7 mph WSW1.1 kmh WSW 6.0 mph9.7 kmh 29.07 in984.4 mb 0.00 in0.0 mm 0.00 in0.0 mm 0.00 in0.0 mm
02:00 AM 50.5°F10.3°C 46.8°F8.2°C 87% 0.7 mph WSW1.1 kmh WSW 6.0 mph9.7 kmh 29.07 in984.4 mb 0.00 in0.0 mm 0.00 in0.0 mm 0.00 in0.0 mm
01:55 AM 50.5°F10.3°C 46.8°F8.2°C 87% 0.7 mph W1.1 kmh W 4.5 mph7.2 kmh 29.07 in984.4 mb 0.00 in0.0 mm 0.00 in0.0 mm 0.00 in0.0 mm
01:50 AM 50.5°F10.3°C 46.5°F8.1°C 86% 2.2 mph WSW3.5 kmh WSW 5.4 mph8.7 kmh 29.07 in984.4 mb 0.00 in0.0 mm 0.00 in0.0 mm 0.00 in0.0 mm
01:45 AM 50.5°F10.3°C 46.5°F8.1°C 86% 1.6 mph SW2.6 kmh SW 6.9 mph11.1 kmh 29.07 in984.4 mb 0.00 in0.0 mm 0.00 in0.0 mm 0.00 in0.0 mm
01:40 AM 50.5°F10.3°C 46.5°F8.1°C 86% 0.7 mph WSW1.1 kmh WSW 6.9 mph11.1 kmh 29.07 in984.4 mb 0.00 in0.0 mm 0.00 in0.0 mm 0.00 in0.0 mm
01:35 AM 50.5°F10.3°C 46.2°F7.9°C 85% 1.6 mph WNW2.6 kmh WNW 6.9 mph11.1 kmh 29.07 in984.4 mb 0.00 in0.0 mm 0.00 in0.0 mm 0.00 in0.0 mm
01:30 AM 50.4°F10.2°C 46.0°F7.8°C 85% 0.7 mph WNW1.1 kmh WNW 4.5 mph7.2 kmh 29.06 in984.1 mb 0.00 in0.0 mm 0.00 in0.0 mm 0.00 in0.0 mm
01:25 AM 50.5°F10.3°C 46.2°F7.9°C 85% 0.7 mph NW1.1 kmh NW 5.4 mph8.7 kmh 29.07 in984.4 mb 0.00 in0.0 mm 0.00 in0.0 mm 0.00 in0.0 mm
01:20 AM 50.5°F10.3°C 46.2°F7.9°C 85% 0.7 mph NW1.1 kmh NW 5.4 mph8.7 kmh 29.07 in984.4 mb 0.00 in0.0 mm 0.00 in0.0 mm 0.00 in0.0 mm
01:15 AM 50.5°F10.3°C 46.2°F7.9°C 85% 0.7 mph WNW1.1 kmh WNW 4.5 mph7.2 kmh 29.07 in984.4 mb 0.00 in0.0 mm 0.00 in0.0 mm 0.00 in0.0 mm
01:10 AM 50.5°F10.3°C 46.2°F7.9°C 85% Calm Calm 4.5 mph7.2 kmh 29.07 in984.4 mb 0.00 in0.0 mm 0.00 in0.0 mm 0.00 in0.0 mm
01:05 AM 50.5°F10.3°C 46.2°F7.9°C 85% 0.7 mph W1.1 kmh W 6.0 mph9.7 kmh 29.07 in984.4 mb 0.00 in0.0 mm 0.00 in0.0 mm 0.00 in0.0 mm
01:00 AM 50.5°F10.3°C 46.2°F7.9°C 85% 2.2 mph W3.5 kmh W 6.0 mph9.7 kmh 29.07 in984.4 mb 0.00 in0.0 mm 0.00 in0.0 mm 0.00 in0.0 mm
12:55 AM 50.7°F10.4°C 46.1°F7.8°C 84% 0.7 mph NW1.1 kmh NW 3.8 mph6.1 kmh 29.07 in984.4 mb 0.00 in0.0 mm 0.00 in0.0 mm 0.00 in0.0 mm
12:50 AM 50.5°F10.3°C 45.9°F7.7°C 84% Calm Calm 3.8 mph6.1 kmh 29.07 in984.4 mb 0.00 in0.0 mm 0.00 in0.0 mm 0.00 in0.0 mm
12:45 AM 50.7°F10.4°C 46.1°F7.8°C 84% 1.6 mph NNW2.6 kmh NNW 3.8 mph6.1 kmh 29.07 in984.4 mb 0.00 in0.0 mm 0.00 in0.0 mm 0.00 in0.0 mm
12:40 AM 50.9°F10.5°C 46.2°F7.9°C 84% 0.7 mph NNW1.1 kmh NNW 2.2 mph3.5 kmh 29.06 in984.1 mb 0.00 in0.0 mm 0.00 in0.0 mm 0.00 in0.0 mm
12:35 AM 51.1°F10.6°C 46.4°F8.0°C 84% Calm Calm 3.1 mph5.0 kmh 29.06 in984.1 mb 0.00 in0.0 mm 0.00 in0.0 mm 0.00 in0.0 mm
12:30 AM 50.9°F10.5°C 46.2°F7.9°C 84% Calm Calm 3.1 mph5.0 kmh 29.06 in984.1 mb 0.00 in0.0 mm 0.00 in0.0 mm 0.00 in0.0 mm
12:25 AM 50.9°F10.5°C 45.9°F7.7°C 83% 0.7 mph NW1.1 kmh NW 4.5 mph7.2 kmh 29.06 in984.1 mb 0.00 in0.0 mm 0.00 in0.0 mm 0.00 in0.0 mm
12:20 AM 50.7°F10.4°C 46.1°F7.8°C 84% 0.7 mph WNW1.1 kmh WNW 4.5 mph7.2 kmh 29.06 in984.1 mb 0.00 in0.0 mm 0.00 in0.0 mm 0.00 in0.0 mm
12:15 AM 50.7°F10.4°C 46.1°F7.8°C 84% 2.2 mph W3.5 kmh W 4.5 mph7.2 kmh 29.07 in984.4 mb 0.00 in0.0 mm 0.00 in0.0 mm 0.00 in0.0 mm
12:10 AM 50.5°F10.3°C 45.9°F7.7°C 84% 0.7 mph W1.1 kmh W 4.5 mph7.2 kmh 29.07 in984.4 mb 0.00 in0.0 mm 0.00 in0.0 mm 0.00 in0.0 mm
12:05 AM 50.5°F10.3°C 45.9°F7.7°C 84% Calm Calm 4.5 mph7.2 kmh 29.07 in984.4 mb 0.00 in0.0 mm 0.00 in0.0 mm 0.00 in0.0 mm
12:00 AM 50.5°F10.3°C 45.9°F7.7°C 84% 1.6 mph N2.6 kmh N 5.4 mph8.7 kmh 29.06 in984.1 mb 0.00 in0.0 mm 0.00 in0.0 mm 0.00 in0.0 mm